Northsea Pioneer — 9HA3784 — position and weather

sailwx.info

Track history (hours):
 
Tides and Currents Weather Stations Pressure Air Temp Water Temp Dewpoint Dewpoint Depression Visibility Wind Speed Wind Dir Waves Ship Positions

Northsea Pioneer

Last reported at 2018-Apr-25 05:06 UTC. Time now 2018-Apr-26 11:45 UTC.
Position N 37°23' E 023°60'.

Length 122 m; draft 7.4 m.

Type: Tanker. MMSI: 229998000.

Date/timePositionNaut miles runAvg speedWind from/ knotsBaromVisibWave heightAir tempDewpointWater temp
2018-Apr-25 05:06N 37°23' E 023°60'110.3
2018-Apr-25 04:58N 37°22' E 023°59'510.1
2018-Apr-25 04:28N 37°18' E 023°56'510.0
2018-Apr-25 03:59N 37°14' E 023°52'1310.0
2018-Apr-25 02:38N 37°02' E 023°44'110.1
2018-Apr-25 02:30N 37°01' E 023°43'610.2
2018-Apr-25 01:56N 36°56' E 023°39'410.2
2018-Apr-25 01:30N 36°52' E 023°37'510.1
2018-Apr-25 01:00N 36°48' E 023°33'  
2018-Apr-18 17:51N 35°60' W 005°17'410.3
2018-Apr-18 17:30N 35°59' W 005°21'510.2
2018-Apr-18 17:00N 35°58' W 005°27'231 7.8
2018-Apr-17 11:22N 37°30' W 009°51'410.0
2018-Apr-17 11:00N 37°34' W 009°52'5 9.8
2018-Apr-17 10:30N 37°39' W 009°53'9 9.7
2018-Apr-17 09:36N 37°47' W 009°56'11 9.5
2018-Apr-17 08:25N 37°58' W 009°58'6 9.7
2018-Apr-17 07:49N 38°04' W 009°59'4 9.4
2018-Apr-17 07:26N 38°08' W 010°00'12 9.5
2018-Apr-17 06:09N 38°19' W 010°04'2 9.5
2018-Apr-17 05:57N 38°21' W 010°05'4 9.5
2018-Apr-17 05:30N 38°25' W 010°06'31 9.5
2018-Apr-17 02:12N 38°56' W 010°09'2 8.9
2018-Apr-17 02:00N 38°58' W 010°09'5 8.9
2018-Apr-17 01:30N 39°03' W 010°08'4 8.9
2018-Apr-17 01:00N 39°07' W 010°08'5 9.1
2018-Apr-17 00:30N 39°11' W 010°07'6 9.1
2018-Apr-16 23:53N 39°17' W 010°05'5 9.6
2018-Apr-16 23:24N 39°21' W 010°04'  
Track history (hours):
 
Tides and Currents Weather Stations Pressure Air Temp Water Temp Dewpoint Dewpoint Depression Visibility Wind Speed Wind Dir Waves Ship Positions

Northsea Pioneer

Last reported at 2018-Apr-25 05:06 UTC. Time now 2018-Apr-26 11:45 UTC.
Position N 37°23' E 023°60'.

Length 122 m; draft 7.4 m.

Type: Tanker. MMSI: 229998000.

Date/timePositionNaut miles runAvg speedWind from/ knotsBaromVisibWave heightAir tempDewpointWater temp
2018-Apr-25 05:06N 37°23' E 023°60'110.3
2018-Apr-25 04:58N 37°22' E 023°59'510.1
2018-Apr-25 04:28N 37°18' E 023°56'510.0
2018-Apr-25 03:59N 37°14' E 023°52'1310.0
2018-Apr-25 02:38N 37°02' E 023°44'110.1
2018-Apr-25 02:30N 37°01' E 023°43'610.2
2018-Apr-25 01:56N 36°56' E 023°39'410.2
2018-Apr-25 01:30N 36°52' E 023°37'510.1
2018-Apr-25 01:00N 36°48' E 023°33'  
2018-Apr-18 17:51N 35°60' W 005°17'410.3
2018-Apr-18 17:30N 35°59' W 005°21'510.2
2018-Apr-18 17:00N 35°58' W 005°27'231 7.8
2018-Apr-17 11:22N 37°30' W 009°51'410.0
2018-Apr-17 11:00N 37°34' W 009°52'5 9.8
2018-Apr-17 10:30N 37°39' W 009°53'9 9.7
2018-Apr-17 09:36N 37°47' W 009°56'11 9.5
2018-Apr-17 08:25N 37°58' W 009°58'6 9.7
2018-Apr-17 07:49N 38°04' W 009°59'4 9.4
2018-Apr-17 07:26N 38°08' W 010°00'12 9.5
2018-Apr-17 06:09N 38°19' W 010°04'2 9.5
2018-Apr-17 05:57N 38°21' W 010°05'4 9.5
2018-Apr-17 05:30N 38°25' W 010°06'31 9.5
2018-Apr-17 02:12N 38°56' W 010°09'2 8.9
2018-Apr-17 02:00N 38°58' W 010°09'5 8.9
2018-Apr-17 01:30N 39°03' W 010°08'4 8.9
2018-Apr-17 01:00N 39°07' W 010°08'5 9.1
2018-Apr-17 00:30N 39°11' W 010°07'6 9.1
2018-Apr-16 23:53N 39°17' W 010°05'5 9.6
2018-Apr-16 23:24N 39°21' W 010°04'  

Dump ship's entire track history